createdAt,value
2019-03-28T00:00:17.374Z,0.00
2019-03-28T00:01:17.359Z,0.00
2019-03-28T00:02:17.348Z,0.00
2019-03-28T00:03:17.341Z,0.00
2019-03-28T00:04:17.357Z,0.00
2019-03-28T00:05:17.321Z,0.00
2019-03-28T00:06:17.298Z,0.00
2019-03-28T00:07:17.293Z,0.00
2019-03-28T00:08:17.278Z,0.00
2019-03-28T00:09:17.299Z,0.00
2019-03-28T00:10:17.253Z,0.00
2019-03-28T00:11:17.251Z,0.00
2019-03-28T00:12:17.236Z,0.00
2019-03-28T00:13:17.223Z,0.00
2019-03-28T00:14:17.239Z,0.00
2019-03-28T00:15:17.202Z,0.00
2019-03-28T00:16:17.198Z,0.00
2019-03-28T00:17:17.189Z,0.00
2019-03-28T00:18:17.170Z,0.00
2019-03-28T00:19:17.177Z,0.00
2019-03-28T00:20:17.146Z,0.00
2019-03-28T00:21:17.153Z,0.00
2019-03-28T00:22:17.331Z,0.00
2019-03-28T00:23:17.107Z,0.00
2019-03-28T00:24:17.101Z,0.00
2019-03-28T00:25:17.117Z,0.00
2019-03-28T00:26:29.399Z,0.00
2019-03-28T00:27:18.064Z,0.00
2019-03-28T00:28:17.059Z,0.00
2019-03-28T00:29:17.041Z,0.00
2019-03-28T00:30:17.059Z,0.00
2019-03-28T00:31:17.022Z,0.00
2019-03-28T00:32:17.008Z,0.00
2019-03-28T00:33:17.003Z,0.00
2019-03-28T00:34:17.005Z,0.00
2019-03-28T00:35:17.016Z,0.00
2019-03-28T00:36:17.171Z,0.00
2019-03-28T00:37:16.959Z,0.00
2019-03-28T00:38:16.943Z,0.00
2019-03-28T00:39:16.935Z,0.00
2019-03-28T00:40:16.937Z,0.00
2019-03-28T00:41:16.929Z,0.00
2019-03-28T00:42:16.899Z,0.00
2019-03-28T00:43:16.886Z,0.00
2019-03-28T00:44:16.873Z,0.00
2019-03-28T00:45:16.886Z,0.00
2019-03-28T00:46:16.873Z,0.00
2019-03-28T00:47:16.839Z,0.00
2019-03-28T00:48:16.831Z,0.00
2019-03-28T00:49:16.815Z,0.00
2019-03-28T00:50:16.818Z,0.00
2019-03-28T00:51:16.821Z,0.00
2019-03-28T00:52:16.779Z,0.00
2019-03-28T00:53:16.773Z,0.00
2019-03-28T00:54:16.761Z,0.00
2019-03-28T00:55:16.752Z,0.00
2019-03-28T00:56:16.756Z,0.00
2019-03-28T00:57:16.725Z,0.00
2019-03-28T00:58:16.711Z,0.00
2019-03-28T00:59:16.700Z,0.00
2019-03-28T01:00:16.691Z,0.00
2019-03-28T01:01:16.697Z,0.00
2019-03-28T01:02:16.671Z,0.00
2019-03-28T01:03:16.655Z,0.00
2019-03-28T01:04:16.647Z,0.00
2019-03-28T01:05:17.148Z,0.00
2019-03-28T01:06:16.745Z,4.00
2019-03-28T01:07:16.634Z,4.00
2019-03-28T01:08:16.599Z,4.00
2019-03-28T01:09:16.589Z,4.00
2019-03-28T01:10:16.585Z,4.00
2019-03-28T01:11:16.579Z,8.00
2019-03-28T01:12:16.579Z,8.00
2019-03-28T01:13:16.560Z,0.00
2019-03-28T01:14:16.537Z,0.00
2019-03-28T01:15:16.525Z,0.00
2019-03-28T01:16:16.549Z,0.00
2019-03-28T01:17:16.551Z,0.00
2019-03-28T01:18:16.507Z,0.00
2019-03-28T01:19:16.473Z,0.00
2019-03-28T01:20:16.463Z,0.00
2019-03-28T01:21:16.463Z,0.00
2019-03-28T01:22:16.463Z,0.00
2019-03-28T01:23:16.443Z,0.00
2019-03-28T01:24:16.451Z,4.00
2019-03-28T01:25:16.405Z,4.00
2019-03-28T01:26:16.404Z,4.00
2019-03-28T01:27:16.407Z,4.00
2019-03-28T01:28:16.393Z,0.00
2019-03-28T01:29:16.373Z,8.00
2019-03-28T01:30:16.359Z,0.00
2019-03-28T01:31:16.342Z,0.00
2019-03-28T01:32:16.348Z,0.00
2019-03-28T01:33:16.315Z,0.00
2019-03-28T01:34:16.317Z,0.00
2019-03-28T01:35:16.307Z,0.00
2019-03-28T01:36:16.280Z,0.00
2019-03-28T01:37:16.292Z,0.00
2019-03-28T01:38:16.265Z,0.00
2019-03-28T01:39:16.251Z,0.00
2019-03-28T01:40:16.239Z,0.00
2019-03-28T01:41:16.313Z,0.00
2019-03-28T01:42:16.261Z,0.00
2019-03-28T01:43:16.223Z,0.00
2019-03-28T01:44:16.202Z,0.00
2019-03-28T01:45:16.202Z,0.00
2019-03-28T01:46:16.185Z,0.00
2019-03-28T01:47:16.185Z,0.00
2019-03-28T01:48:16.151Z,8.00
2019-03-28T01:49:16.138Z,8.00
2019-03-28T01:50:16.125Z,8.00
2019-03-28T01:51:16.117Z,0.00
2019-03-28T01:52:16.142Z,0.00
2019-03-28T01:53:16.087Z,0.00
2019-03-28T01:54:16.079Z,0.00
2019-03-28T01:55:16.076Z,0.00
2019-03-28T01:56:16.059Z,0.00
2019-03-28T01:57:16.053Z,0.00
2019-03-28T01:58:16.061Z,0.00
2019-03-28T01:59:16.021Z,0.00
2019-03-28T02:00:16.016Z,0.00
2019-03-28T02:01:16.000Z,0.00
2019-03-28T02:02:15.990Z,0.00
2019-03-28T02:03:15.997Z,0.00
2019-03-28T02:04:15.973Z,0.00
2019-03-28T02:05:15.968Z,0.00
2019-03-28T02:06:15.963Z,0.00
2019-03-28T02:07:15.931Z,0.00
2019-03-28T02:08:15.942Z,0.00
2019-03-28T02:09:15.914Z,0.00
2019-03-28T02:10:15.907Z,0.00
2019-03-28T02:11:15.896Z,0.00
2019-03-28T02:12:15.875Z,0.00
2019-03-28T02:13:15.884Z,0.00
2019-03-28T02:14:15.866Z,0.00
2019-03-28T02:15:15.839Z,0.00
2019-03-28T02:16:15.840Z,0.00
2019-03-28T02:17:15.825Z,0.00
2019-03-28T02:18:15.826Z,0.00
2019-03-28T02:19:15.813Z,0.00
2019-03-28T02:20:15.797Z,0.00
2019-03-28T02:21:15.778Z,0.00
2019-03-28T02:22:15.764Z,0.00
2019-03-28T02:23:15.829Z,0.00
2019-03-28T02:24:15.747Z,0.00
2019-03-28T02:25:15.736Z,0.00
2019-03-28T02:26:15.724Z,0.00
2019-03-28T02:27:24.021Z,0.00
2019-03-28T02:28:16.709Z,0.00
2019-03-28T02:29:15.686Z,0.00
2019-03-28T02:30:15.682Z,0.00
2019-03-28T02:31:16.713Z,0.00
2019-03-28T02:32:15.654Z,0.00
2019-03-28T02:33:15.655Z,0.00
2019-03-28T02:34:15.634Z,0.00
2019-03-28T02:35:15.618Z,0.00
2019-03-28T02:36:15.626Z,0.00
2019-03-28T02:37:15.603Z,0.00
2019-03-28T02:38:15.606Z,0.00
2019-03-28T02:39:15.570Z,0.00
2019-03-28T02:40:16.753Z,0.00
2019-03-28T02:41:15.557Z,0.00
2019-03-28T02:42:15.537Z,0.00
2019-03-28T02:43:15.550Z,0.00
2019-03-28T02:44:15.516Z,0.00
2019-03-28T02:45:15.513Z,0.00
2019-03-28T02:46:15.491Z,0.00
2019-03-28T02:47:15.485Z,0.00
2019-03-28T02:48:15.508Z,0.00
2019-03-28T02:49:15.469Z,0.00
2019-03-28T02:50:15.448Z,0.00
2019-03-28T02:51:15.437Z,0.00
2019-03-28T02:52:15.430Z,0.00
2019-03-28T02:53:15.427Z,0.00
2019-03-28T02:54:15.442Z,0.00
2019-03-28T02:55:15.394Z,0.00
2019-03-28T02:56:15.991Z,0.00
2019-03-28T02:57:15.381Z,0.00
2019-03-28T02:58:15.363Z,0.00
2019-03-28T02:59:15.379Z,0.00
2019-03-28T03:00:15.340Z,0.00
2019-03-28T03:01:15.328Z,0.00
2019-03-28T03:02:15.306Z,0.00
2019-03-28T03:03:15.307Z,0.00
2019-03-28T03:04:15.315Z,0.00
2019-03-28T03:05:15.292Z,0.00
2019-03-28T03:06:15.272Z,0.00
2019-03-28T03:07:15.260Z,0.00
2019-03-28T03:08:15.242Z,0.00
2019-03-28T03:09:15.249Z,0.00
2019-03-28T03:10:15.221Z,0.00
2019-03-28T03:11:15.208Z,0.00
2019-03-28T03:12:15.198Z,0.00
2019-03-28T03:13:15.203Z,0.00
2019-03-28T03:14:15.209Z,0.00
2019-03-28T03:15:15.171Z,0.00
2019-03-28T03:16:15.153Z,0.00
2019-03-28T03:17:15.849Z,0.00
2019-03-28T03:18:15.141Z,0.00
2019-03-28T03:19:15.137Z,0.00
2019-03-28T03:20:15.137Z,0.00
2019-03-28T03:21:15.099Z,0.00
2019-03-28T03:22:15.095Z,0.00
2019-03-28T03:23:15.072Z,0.00
2019-03-28T03:24:15.077Z,0.00
2019-03-28T03:25:15.083Z,0.00
2019-03-28T03:26:15.050Z,0.00
2019-03-28T03:27:15.033Z,0.00
2019-03-28T03:28:15.021Z,0.00
2019-03-28T03:29:15.016Z,0.00
2019-03-28T03:30:15.015Z,0.00
2019-03-28T03:31:20.524Z,0.00
2019-03-28T03:32:16.000Z,0.00
2019-03-28T03:33:14.970Z,0.00
2019-03-28T03:34:14.966Z,0.00
2019-03-28T03:35:14.955Z,0.00
2019-03-28T03:36:14.934Z,0.00
2019-03-28T03:37:14.923Z,0.00
2019-03-28T03:38:14.967Z,0.00
2019-03-28T03:39:14.918Z,0.00
2019-03-28T03:40:14.903Z,0.00
2019-03-28T03:41:14.872Z,0.00
2019-03-28T03:42:14.866Z,0.00
2019-03-28T03:43:14.860Z,0.00
2019-03-28T03:44:16.082Z,0.00
2019-03-28T03:45:14.842Z,0.00
2019-03-28T03:46:14.825Z,0.00
2019-03-28T03:47:14.805Z,0.00
2019-03-28T03:48:14.799Z,0.00
2019-03-28T03:49:14.778Z,0.00
2019-03-28T03:50:14.793Z,0.00
2019-03-28T03:51:14.958Z,0.00
2019-03-28T03:52:15.671Z,0.00
2019-03-28T03:53:14.739Z,0.00
2019-03-28T03:54:14.737Z,0.00
2019-03-28T03:55:14.750Z,0.00
2019-03-28T03:56:14.709Z,0.00
2019-03-28T03:57:14.687Z,0.00
2019-03-28T03:58:16.859Z,0.00
2019-03-28T03:59:14.676Z,0.00
2019-03-28T04:00:14.688Z,0.00
2019-03-28T04:01:14.649Z,0.00
2019-03-28T04:02:14.636Z,0.00
2019-03-28T04:03:14.638Z,0.00
2019-03-28T04:04:14.615Z,0.00
2019-03-28T04:05:14.618Z,0.00
2019-03-28T04:06:14.615Z,0.00
2019-03-28T04:07:14.579Z,0.00
2019-03-28T04:08:14.601Z,0.00
2019-03-28T04:09:14.558Z,0.00
2019-03-28T04:10:14.547Z,0.00
2019-03-28T04:11:14.623Z,0.00
2019-03-28T04:12:14.518Z,0.00
2019-03-28T04:13:14.509Z,0.00
2019-03-28T04:14:14.509Z,0.00
2019-03-28T04:15:14.488Z,0.00
2019-03-28T04:16:14.492Z,0.00
2019-03-28T04:17:14.465Z,0.00
2019-03-28T04:18:14.456Z,0.00
2019-03-28T04:19:14.448Z,0.00
2019-03-28T04:20:14.447Z,0.00
2019-03-28T04:21:14.462Z,0.00
2019-03-28T04:22:14.425Z,0.00
2019-03-28T04:23:14.398Z,0.00
2019-03-28T04:24:14.388Z,0.00
2019-03-28T04:25:14.378Z,0.00
2019-03-28T04:26:14.379Z,4.00
2019-03-28T04:27:14.362Z,4.00
2019-03-28T04:28:24.822Z,4.00
2019-03-28T04:29:15.340Z,0.00
2019-03-28T04:30:14.317Z,4.00
2019-03-28T04:31:14.327Z,4.00
2019-03-28T04:32:14.297Z,4.00
2019-03-28T04:33:14.294Z,4.00
2019-03-28T04:34:14.273Z,8.00
2019-03-28T04:35:14.258Z,8.00
2019-03-28T04:36:14.545Z,8.00
2019-03-28T04:37:14.241Z,8.00
2019-03-28T04:38:14.235Z,8.00
2019-03-28T04:39:14.219Z,8.00
2019-03-28T04:40:14.209Z,8.00
2019-03-28T04:41:14.213Z,12.00
2019-03-28T04:42:14.187Z,12.00
2019-03-28T04:43:14.208Z,16.00
2019-03-28T04:44:14.165Z,16.00
2019-03-28T04:45:14.155Z,20.00
2019-03-28T04:46:14.155Z,20.00
2019-03-28T04:47:14.127Z,28.00
2019-03-28T04:48:14.114Z,32.00
2019-03-28T04:49:15.759Z,36.00
2019-03-28T04:50:14.099Z,36.00
2019-03-28T04:51:14.113Z,36.00
2019-03-28T04:52:14.071Z,48.00
2019-03-28T04:53:14.057Z,48.00
2019-03-28T04:54:14.057Z,64.00
2019-03-28T04:55:14.050Z,68.00
2019-03-28T04:56:14.055Z,80.00
2019-03-28T04:57:14.056Z,120.00
2019-03-28T04:58:13.998Z,120.00
2019-03-28T04:59:14.019Z,128.00
2019-03-28T05:00:13.981Z,128.00
2019-03-28T05:01:13.981Z,144.00
2019-03-28T05:02:13.979Z,176.00
2019-03-28T05:03:13.945Z,184.00
2019-03-28T05:04:13.962Z,176.00
2019-03-28T05:05:13.925Z,224.00
2019-03-28T05:06:13.916Z,264.00
2019-03-28T05:07:13.922Z,260.00
2019-03-28T05:08:13.893Z,280.00
2019-03-28T05:09:13.883Z,248.00
2019-03-28T05:10:13.871Z,344.00
2019-03-28T05:11:13.855Z,312.00
2019-03-28T05:12:13.865Z,280.00
2019-03-28T05:13:13.884Z,344.00
2019-03-28T05:14:13.825Z,356.00
2019-03-28T05:15:13.815Z,384.00
2019-03-28T05:16:13.799Z,408.00
2019-03-28T05:17:14.404Z,372.00
2019-03-28T05:18:13.778Z,452.00
2019-03-28T05:19:13.767Z,452.00
2019-03-28T05:20:13.856Z,416.00
2019-03-28T05:21:13.746Z,400.00
2019-03-28T05:22:13.771Z,388.00
2019-03-28T05:23:14.322Z,392.00
2019-03-28T05:24:13.711Z,524.00
2019-03-28T05:25:13.702Z,492.00
2019-03-28T05:26:13.684Z,524.00
2019-03-28T05:27:16.486Z,500.00
2019-03-28T05:28:13.663Z,512.00
2019-03-28T05:29:13.657Z,540.00
2019-03-28T05:30:13.646Z,492.00
2019-03-28T05:31:13.631Z,564.00
2019-03-28T05:32:13.643Z,576.00
2019-03-28T05:33:13.611Z,516.00
2019-03-28T05:34:13.597Z,500.00
2019-03-28T05:35:13.665Z,500.00
2019-03-28T05:36:13.573Z,520.00
2019-03-28T05:37:13.591Z,508.00
2019-03-28T05:38:13.557Z,640.00
2019-03-28T05:39:13.540Z,580.00
2019-03-28T05:40:13.537Z,680.00
2019-03-28T05:41:13.517Z,596.00
2019-03-28T05:42:13.585Z,680.00
2019-03-28T05:43:13.494Z,636.00
2019-03-28T05:44:13.483Z,704.00
2019-03-28T05:45:13.479Z,680.00
2019-03-28T05:46:14.375Z,704.00
2019-03-28T05:47:13.487Z,760.00
2019-03-28T05:48:13.442Z,704.00
2019-03-28T05:49:13.431Z,576.00
2019-03-28T05:50:13.635Z,576.00
2019-03-28T05:51:13.408Z,540.00
2019-03-28T05:52:13.429Z,612.00
2019-03-28T05:53:13.460Z,620.00
2019-03-28T05:54:13.369Z,600.00
2019-03-28T05:55:13.369Z,576.00
2019-03-28T05:56:13.352Z,772.00
2019-03-28T05:57:13.347Z,676.00
2019-03-28T05:58:13.341Z,632.00
2019-03-28T05:59:13.315Z,740.00
2019-03-28T06:00:13.310Z,684.00
2019-03-28T06:01:13.297Z,888.00
2019-03-28T06:02:13.295Z,848.00
2019-03-28T06:03:13.297Z,948.00
2019-03-28T06:04:13.261Z,788.00
2019-03-28T06:05:13.245Z,812.00
2019-03-28T06:06:13.234Z,996.00
2019-03-28T06:07:13.225Z,1108.00
2019-03-28T06:08:13.232Z,888.00
2019-03-28T06:09:13.206Z,824.00
2019-03-28T06:10:16.107Z,900.00
2019-03-28T06:11:13.175Z,996.00
2019-03-28T06:12:13.165Z,984.00
2019-03-28T06:13:13.206Z,912.00
2019-03-28T06:14:13.143Z,864.00
2019-03-28T06:15:13.137Z,820.00
2019-03-28T06:16:13.122Z,956.00
2019-03-28T06:17:13.115Z,1180.00
2019-03-28T06:18:13.131Z,900.00
2019-03-28T06:19:13.101Z,948.00
2019-03-28T06:20:13.077Z,968.00
2019-03-28T06:21:13.069Z,1068.00
2019-03-28T06:22:13.509Z,1036.00
2019-03-28T06:23:13.403Z,1220.00
2019-03-28T06:24:13.050Z,1212.00
2019-03-28T06:25:13.041Z,1392.00
2019-03-28T06:26:13.013Z,1524.00
2019-03-28T06:27:13.661Z,1568.00
2019-03-28T06:28:20.341Z,1512.00
2019-03-28T06:29:23.206Z,1968.00
2019-03-28T06:30:13.959Z,1404.00
2019-03-28T06:31:12.975Z,1480.00
2019-03-28T06:32:12.945Z,1584.00
2019-03-28T06:33:12.935Z,1188.00
2019-03-28T06:34:12.947Z,1376.00
2019-03-28T06:35:13.135Z,1536.00
2019-03-28T06:36:12.916Z,1672.00
2019-03-28T06:37:13.428Z,1768.00
2019-03-28T06:38:12.871Z,1392.00
2019-03-28T06:39:12.879Z,1160.00
2019-03-28T06:40:12.867Z,1136.00
2019-03-28T06:41:12.844Z,1232.00
2019-03-28T06:42:12.838Z,1180.00
2019-03-28T06:43:12.819Z,1092.00
2019-03-28T06:44:12.827Z,1136.00
2019-03-28T06:45:12.806Z,1164.00
2019-03-28T06:46:12.784Z,1588.00
2019-03-28T06:47:12.776Z,1412.00
2019-03-28T06:48:12.827Z,1300.00
2019-03-28T06:49:12.795Z,1312.00
2019-03-28T06:50:12.750Z,1148.00
2019-03-28T06:51:12.833Z,984.00
2019-03-28T06:52:12.826Z,1200.00
2019-03-28T06:53:12.813Z,1272.00
2019-03-28T06:54:12.734Z,1108.00
2019-03-28T06:55:12.683Z,1164.00
2019-03-28T06:56:12.673Z,1208.00
2019-03-28T06:57:12.672Z,1316.00
2019-03-28T06:58:12.709Z,1516.00
2019-03-28T06:59:12.659Z,1436.00
2019-03-28T07:00:12.673Z,1568.00
2019-03-28T07:01:12.644Z,1500.00
2019-03-28T07:02:12.611Z,1716.00
2019-03-28T07:03:12.980Z,1660.00
2019-03-28T07:04:12.624Z,2020.00
2019-03-28T07:05:12.596Z,2184.00
2019-03-28T07:06:12.579Z,1980.00
2019-03-28T07:07:12.555Z,1632.00
2019-03-28T07:08:12.550Z,2200.00
2019-03-28T07:09:12.658Z,2536.00
2019-03-28T07:10:12.537Z,2980.00
2019-03-28T07:11:12.525Z,2716.00
2019-03-28T07:12:12.510Z,3804.00
2019-03-28T07:13:12.496Z,4476.00
2019-03-28T07:14:12.512Z,3916.00
2019-03-28T07:15:12.575Z,4824.00
2019-03-28T07:16:12.464Z,4348.00
2019-03-28T07:17:12.492Z,4184.00
2019-03-28T07:18:12.431Z,3956.00
2019-03-28T07:19:12.438Z,3516.00
2019-03-28T07:20:12.408Z,4528.00
2019-03-28T07:21:12.413Z,4148.00
2019-03-28T07:22:12.388Z,3932.00
2019-03-28T07:23:12.375Z,3508.00
2019-03-28T07:24:12.390Z,3644.00
2019-03-28T07:25:12.351Z,3488.00
2019-03-28T07:26:12.347Z,3924.00
2019-03-28T07:27:12.342Z,4508.00
2019-03-28T07:28:12.329Z,3328.00
2019-03-28T07:29:12.365Z,4128.00
2019-03-28T07:30:12.297Z,4184.00
2019-03-28T07:31:12.677Z,3524.00
2019-03-28T07:32:12.294Z,3704.00
2019-03-28T07:33:12.264Z,4584.00
2019-03-28T07:34:13.672Z,4160.00
2019-03-28T07:35:12.274Z,4744.00
2019-03-28T07:36:12.241Z,3708.00
2019-03-28T07:37:12.602Z,2968.00
2019-03-28T07:38:12.221Z,2848.00
2019-03-28T07:39:12.197Z,3180.00
2019-03-28T07:40:12.204Z,4052.00
2019-03-28T07:41:12.179Z,4280.00
2019-03-28T07:42:12.159Z,3288.00
2019-03-28T07:43:12.159Z,4008.00
2019-03-28T07:44:12.145Z,4320.00
2019-03-28T07:45:12.138Z,4824.00
2019-03-28T07:46:12.112Z,5468.00
2019-03-28T07:47:12.093Z,4868.00
2019-03-28T07:48:12.088Z,4468.00
2019-03-28T07:49:12.075Z,4240.00
2019-03-28T07:50:12.078Z,4880.00
2019-03-28T07:51:12.053Z,4312.00
2019-03-28T07:52:12.043Z,4424.00
2019-03-28T07:53:12.029Z,5488.00
2019-03-28T07:54:12.026Z,3628.00
2019-03-28T07:55:12.070Z,3852.00
2019-03-28T07:56:12.002Z,4092.00
2019-03-28T07:57:11.982Z,3652.00
2019-03-28T07:58:11.972Z,3704.00
2019-03-28T07:59:11.958Z,3480.00
2019-03-28T08:00:11.976Z,3180.00
2019-03-28T08:01:11.938Z,5044.00
2019-03-28T08:02:11.926Z,6616.00
2019-03-28T08:03:11.921Z,5548.00
2019-03-28T08:04:12.407Z,4332.00
2019-03-28T08:05:11.919Z,4472.00
2019-03-28T08:06:12.920Z,5200.00
2019-03-28T08:07:11.869Z,5276.00
2019-03-28T08:08:11.854Z,5444.00
2019-03-28T08:09:11.845Z,4640.00
2019-03-28T08:10:11.866Z,5088.00
2019-03-28T08:11:11.871Z,3596.00
2019-03-28T08:12:22.375Z,3900.00
2019-03-28T08:13:12.802Z,6616.00
2019-03-28T08:14:11.790Z,5812.00
2019-03-28T08:15:11.833Z,7624.00
2019-03-28T08:16:11.782Z,5912.00
2019-03-28T08:17:11.777Z,5068.00
2019-03-28T08:18:11.749Z,8512.00
2019-03-28T08:19:11.741Z,8752.00
2019-03-28T08:20:11.748Z,7424.00
2019-03-28T08:21:11.715Z,5976.00
2019-03-28T08:22:11.717Z,5372.00
2019-03-28T08:23:11.692Z,4636.00
2019-03-28T08:24:11.681Z,4880.00
2019-03-28T08:25:12.322Z,7616.00
2019-03-28T08:26:11.653Z,6716.00
2019-03-28T08:27:11.653Z,4352.00
2019-03-28T08:28:11.650Z,4304.00
2019-03-28T08:29:11.620Z,6568.00
2019-03-28T08:30:18.050Z,7736.00
2019-03-28T08:31:12.605Z,4728.00
2019-03-28T08:32:13.566Z,5188.00
2019-03-28T08:33:11.590Z,5224.00
2019-03-28T08:34:11.569Z,6016.00
2019-03-28T08:35:11.616Z,4844.00
2019-03-28T08:36:11.540Z,5180.00
2019-03-28T08:37:11.543Z,4488.00
2019-03-28T08:38:11.529Z,4380.00
2019-03-28T08:39:11.529Z,4084.00
2019-03-28T08:40:11.495Z,4184.00
2019-03-28T08:41:11.502Z,4356.00
2019-03-28T08:42:11.484Z,4268.00
2019-03-28T08:43:11.466Z,3716.00
2019-03-28T08:44:11.455Z,3520.00
2019-03-28T08:45:11.448Z,4588.00
2019-03-28T08:46:11.449Z,4696.00
2019-03-28T08:47:11.419Z,4100.00
2019-03-28T08:48:11.408Z,4020.00
2019-03-28T08:49:11.401Z,4956.00
2019-03-28T08:50:11.406Z,6084.00
2019-03-28T08:51:11.408Z,5496.00
2019-03-28T08:52:11.869Z,4832.00
2019-03-28T08:53:11.355Z,4124.00
2019-03-28T08:54:11.348Z,4744.00
2019-03-28T08:55:11.338Z,5052.00
2019-03-28T08:56:11.338Z,4028.00
2019-03-28T08:57:11.304Z,4192.00
2019-03-28T08:58:11.295Z,3472.00
2019-03-28T08:59:11.299Z,3892.00
2019-03-28T09:00:11.271Z,4596.00
2019-03-28T09:01:11.286Z,5048.00
2019-03-28T09:02:11.250Z,4664.00
2019-03-28T09:03:11.246Z,3952.00
2019-03-28T09:04:11.229Z,3248.00
2019-03-28T09:05:11.213Z,3108.00
2019-03-28T09:06:11.227Z,3488.00
2019-03-28T09:07:11.190Z,4392.00
2019-03-28T09:08:11.185Z,4156.00
2019-03-28T09:09:11.174Z,3816.00
2019-03-28T09:10:11.170Z,3768.00
2019-03-28T09:11:11.188Z,3692.00
2019-03-28T09:12:11.154Z,4012.00
2019-03-28T09:13:11.160Z,3976.00
2019-03-28T09:14:11.110Z,4236.00
2019-03-28T09:15:11.096Z,3572.00
2019-03-28T09:16:11.094Z,3612.00
2019-03-28T09:17:11.130Z,4116.00
2019-03-28T09:18:11.068Z,5416.00
2019-03-28T09:19:11.057Z,5352.00
2019-03-28T09:20:11.046Z,4312.00
2019-03-28T09:21:11.037Z,4172.00
2019-03-28T09:22:11.057Z,4164.00
2019-03-28T09:23:11.210Z,4716.00
2019-03-28T09:24:11.000Z,4632.00
2019-03-28T09:25:12.391Z,4708.00
2019-03-28T09:26:10.981Z,4736.00
2019-03-28T09:27:10.990Z,6504.00
2019-03-28T09:28:10.961Z,7452.00
2019-03-28T09:29:10.953Z,7404.00
2019-03-28T09:30:10.930Z,6712.00
2019-03-28T09:31:19.897Z,8092.00
2019-03-28T09:32:11.926Z,8740.00
2019-03-28T09:33:10.903Z,9516.00
2019-03-28T09:34:10.896Z,9776.00
2019-03-28T09:35:10.881Z,8364.00
2019-03-28T09:36:10.861Z,6592.00
2019-03-28T09:37:10.866Z,7560.00
2019-03-28T09:38:10.841Z,7668.00
2019-03-28T09:39:10.829Z,6496.00
2019-03-28T09:40:10.834Z,8516.00
2019-03-28T09:41:10.808Z,8224.00
2019-03-28T09:42:10.817Z,7388.00
2019-03-28T09:43:10.789Z,7976.00
2019-03-28T09:44:10.787Z,10480.00
2019-03-28T09:45:10.766Z,12044.00
2019-03-28T09:46:10.764Z,11804.00
2019-03-28T09:47:10.781Z,11256.00
2019-03-28T09:48:11.818Z,9600.00
2019-03-28T09:49:10.735Z,9436.00
2019-03-28T09:50:10.712Z,10180.00
2019-03-28T09:51:10.712Z,10696.00
2019-03-28T09:52:10.735Z,10036.00
2019-03-28T09:53:10.676Z,6856.00
2019-03-28T09:54:10.656Z,6512.00
2019-03-28T09:55:10.650Z,7312.00
2019-03-28T09:56:10.675Z,8348.00
2019-03-28T09:57:10.657Z,6408.00
2019-03-28T09:58:10.620Z,6048.00
2019-03-28T09:59:10.608Z,5560.00
2019-03-28T10:00:10.596Z,6656.00
2019-03-28T10:01:10.584Z,6516.00
2019-03-28T10:02:10.658Z,7660.00
2019-03-28T10:03:10.559Z,8088.00
2019-03-28T10:04:10.554Z,7292.00
2019-03-28T10:05:10.560Z,7460.00
2019-03-28T10:06:10.527Z,6056.00
2019-03-28T10:07:10.545Z,5788.00
2019-03-28T10:08:10.500Z,5796.00
2019-03-28T10:09:10.499Z,6864.00
2019-03-28T10:10:10.510Z,8064.00
2019-03-28T10:11:10.470Z,8924.00
2019-03-28T10:12:10.559Z,11584.00
2019-03-28T10:13:10.553Z,15668.00
2019-03-28T10:14:10.442Z,18400.00
2019-03-28T10:15:10.445Z,16292.00
2019-03-28T10:16:10.421Z,10384.00
2019-03-28T10:17:10.448Z,6796.00
2019-03-28T10:18:10.410Z,5092.00
2019-03-28T10:19:10.410Z,5196.00
2019-03-28T10:20:10.373Z,5440.00
2019-03-28T10:21:10.390Z,6200.00
2019-03-28T10:22:10.353Z,6612.00
2019-03-28T10:23:10.357Z,6852.00
2019-03-28T10:24:10.332Z,7032.00
2019-03-28T10:25:12.592Z,5752.00
2019-03-28T10:26:10.314Z,4624.00
2019-03-28T10:27:10.291Z,3832.00
2019-03-28T10:28:10.312Z,3496.00
2019-03-28T10:29:10.273Z,3412.00
2019-03-28T10:30:10.294Z,3700.00
2019-03-28T10:31:16.426Z,4924.00
2019-03-28T10:32:11.241Z,5680.00
2019-03-28T10:33:10.351Z,6720.00
2019-03-28T10:34:10.245Z,6664.00
2019-03-28T10:35:10.210Z,5276.00
2019-03-28T10:36:10.179Z,5144.00
2019-03-28T10:37:10.171Z,5128.00
2019-03-28T10:38:10.187Z,4944.00
2019-03-28T10:39:10.166Z,5656.00
2019-03-28T10:40:10.136Z,5824.00
2019-03-28T10:41:10.141Z,5344.00
2019-03-28T10:42:10.121Z,4792.00
2019-03-28T10:43:10.125Z,4748.00
2019-03-28T10:44:10.110Z,4176.00
2019-03-28T10:45:10.084Z,4024.00
2019-03-28T10:46:10.083Z,3748.00
2019-03-28T10:47:10.070Z,3384.00
2019-03-28T10:48:10.087Z,3432.00
2019-03-28T10:49:10.052Z,4612.00
2019-03-28T10:50:10.034Z,5668.00
2019-03-28T10:51:10.021Z,8076.00
2019-03-28T10:52:11.908Z,10640.00
2019-03-28T10:53:10.033Z,12540.00
2019-03-28T10:54:19.818Z,13840.00
2019-03-28T10:55:10.980Z,14328.00
2019-03-28T10:56:20.882Z,21728.00
2019-03-28T10:57:15.472Z,28000.00
2019-03-28T10:58:18.827Z,21888.00
2019-03-28T10:59:22.762Z,21056.00
2019-03-28T11:00:23.540Z,22048.00
2019-03-28T11:01:10.927Z,20896.00
2019-03-28T11:02:09.906Z,18752.00
2019-03-28T11:03:09.916Z,15936.00
2019-03-28T11:04:09.903Z,12648.00
2019-03-28T11:05:09.869Z,11144.00
2019-03-28T11:06:09.866Z,8776.00
2019-03-28T11:07:09.850Z,5788.00
2019-03-28T11:08:09.869Z,4392.00
2019-03-28T11:09:09.838Z,3824.00
2019-03-28T11:10:09.811Z,3660.00
2019-03-28T11:11:09.792Z,3412.00
2019-03-28T11:12:09.791Z,3008.00
2019-03-28T11:13:10.008Z,2924.00
2019-03-28T11:14:09.771Z,3096.00
2019-03-28T11:15:09.765Z,3188.00
2019-03-28T11:16:09.736Z,3264.00
2019-03-28T11:17:09.726Z,3480.00
2019-03-28T11:18:09.739Z,3724.00
2019-03-28T11:19:09.706Z,4388.00
2019-03-28T11:20:09.874Z,4388.00
2019-03-28T11:21:09.686Z,4248.00
2019-03-28T11:22:09.674Z,3888.00
2019-03-28T11:23:09.659Z,3672.00
2019-03-28T11:24:09.671Z,3360.00
2019-03-28T11:25:09.676Z,3180.00
2019-03-28T11:26:09.637Z,3324.00
2019-03-28T11:27:09.617Z,3228.00
2019-03-28T11:28:09.606Z,3024.00
2019-03-28T11:29:09.615Z,2900.00
2019-03-28T11:30:09.584Z,2848.00
2019-03-28T11:31:09.580Z,2896.00
2019-03-28T11:32:09.557Z,3476.00
2019-03-28T11:33:09.554Z,4040.00
2019-03-28T11:34:09.552Z,3512.00
2019-03-28T11:35:09.527Z,3260.00
2019-03-28T11:36:09.518Z,3060.00
2019-03-28T11:37:14.943Z,3012.00
2019-03-28T11:38:10.492Z,3112.00
2019-03-28T11:39:09.501Z,2920.00
2019-03-28T11:40:09.674Z,2716.00
2019-03-28T11:41:09.467Z,2772.00
2019-03-28T11:42:09.458Z,2836.00
2019-03-28T11:43:09.430Z,3096.00
2019-03-28T11:44:09.461Z,3368.00
2019-03-28T11:45:09.951Z,3312.00
2019-03-28T11:46:09.412Z,3376.00
2019-03-28T11:47:09.391Z,3404.00
2019-03-28T11:48:09.389Z,3488.00
2019-03-28T11:49:09.401Z,3792.00
2019-03-28T11:50:09.368Z,4444.00
2019-03-28T11:51:09.353Z,5168.00
2019-03-28T11:52:09.338Z,5032.00
2019-03-28T11:53:09.337Z,4500.00
2019-03-28T11:54:09.334Z,4220.00
2019-03-28T11:55:09.300Z,4440.00
2019-03-28T11:56:09.284Z,4752.00
2019-03-28T11:57:09.277Z,4760.00
2019-03-28T11:58:09.269Z,4716.00
2019-03-28T11:59:09.276Z,4568.00
2019-03-28T12:00:09.236Z,3976.00
2019-03-28T12:01:09.231Z,4364.00
2019-03-28T12:02:19.621Z,6672.00
2019-03-28T12:03:10.222Z,9292.00
2019-03-28T12:04:09.236Z,10456.00
2019-03-28T12:05:09.210Z,7592.00
2019-03-28T12:06:09.180Z,5568.00
2019-03-28T12:07:09.168Z,4988.00
2019-03-28T12:08:09.154Z,4084.00
2019-03-28T12:09:09.145Z,3840.00
2019-03-28T12:10:09.157Z,3796.00
2019-03-28T12:11:09.117Z,3964.00
2019-03-28T12:12:09.108Z,3852.00
2019-03-28T12:13:09.102Z,3756.00
2019-03-28T12:14:09.089Z,3788.00
2019-03-28T12:15:09.091Z,3908.00
2019-03-28T12:16:09.087Z,4064.00
2019-03-28T12:17:09.046Z,4784.00
2019-03-28T12:18:09.046Z,5256.00
2019-03-28T12:19:09.026Z,5256.00
2019-03-28T12:20:09.053Z,5000.00
2019-03-28T12:21:09.020Z,4408.00
2019-03-28T12:22:09.013Z,4352.00
2019-03-28T12:23:08.988Z,4692.00
2019-03-28T12:24:08.974Z,5236.00
2019-03-28T12:25:08.976Z,5712.00
2019-03-28T12:26:08.954Z,6328.00
2019-03-28T12:27:08.957Z,6640.00
2019-03-28T12:28:08.925Z,6936.00
2019-03-28T12:29:08.909Z,6932.00
2019-03-28T12:30:08.947Z,6652.00
2019-03-28T12:31:09.595Z,6108.00
2019-03-28T12:32:14.472Z,5964.00
2019-03-28T12:33:09.871Z,6784.00
2019-03-28T12:34:08.858Z,6728.00